sensor_id;sensor_type;location;lat;lon;timestamp;temperature;humidity
45843;DHT22;31563;51.744;8.252;2023-07-31T00:00:58;20.70;75.50
45843;DHT22;31563;51.744;8.252;2023-07-31T00:03:26;20.60;75.50
45843;DHT22;31563;51.744;8.252;2023-07-31T00:05:54;20.60;75.80
45843;DHT22;31563;51.744;8.252;2023-07-31T00:08:22;20.60;75.80
45843;DHT22;31563;51.744;8.252;2023-07-31T00:10:51;20.60;75.70
45843;DHT22;31563;51.744;8.252;2023-07-31T00:13:20;20.60;75.90
45843;DHT22;31563;51.744;8.252;2023-07-31T00:15:49;20.60;76.00
45843;DHT22;31563;51.744;8.252;2023-07-31T00:18:17;20.60;76.20
45843;DHT22;31563;51.744;8.252;2023-07-31T00:20:45;20.60;76.20
45843;DHT22;31563;51.744;8.252;2023-07-31T00:23:13;20.70;75.90
45843;DHT22;31563;51.744;8.252;2023-07-31T00:25:42;20.60;76.00
45843;DHT22;31563;51.744;8.252;2023-07-31T00:28:10;20.60;76.00
45843;DHT22;31563;51.744;8.252;2023-07-31T00:30:38;20.60;76.20
45843;DHT22;31563;51.744;8.252;2023-07-31T00:33:07;20.60;76.30
45843;DHT22;31563;51.744;8.252;2023-07-31T00:35:35;20.60;76.90
45843;DHT22;31563;51.744;8.252;2023-07-31T00:38:03;20.60;76.40
45843;DHT22;31563;51.744;8.252;2023-07-31T00:40:34;20.60;76.50
45843;DHT22;31563;51.744;8.252;2023-07-31T00:43:02;20.60;76.60
45843;DHT22;31563;51.744;8.252;2023-07-31T00:45:31;20.60;76.90
45843;DHT22;31563;51.744;8.252;2023-07-31T00:47:59;20.60;76.80
45843;DHT22;31563;51.744;8.252;2023-07-31T00:50:29;20.60;76.80
45843;DHT22;31563;51.744;8.252;2023-07-31T00:52:57;20.60;76.90
45843;DHT22;31563;51.744;8.252;2023-07-31T00:55:25;20.60;77.00
45843;DHT22;31563;51.744;8.252;2023-07-31T00:57:53;20.60;77.10
45843;DHT22;31563;51.744;8.252;2023-07-31T01:00:22;20.50;76.90
45843;DHT22;31563;51.744;8.252;2023-07-31T01:02:51;20.50;77.10
45843;DHT22;31563;51.744;8.252;2023-07-31T01:05:23;20.50;77.20
45843;DHT22;31563;51.744;8.252;2023-07-31T01:08:12;20.50;77.20
45843;DHT22;31563;51.744;8.252;2023-07-31T01:10:59;20.40;77.20
45843;DHT22;31563;51.744;8.252;2023-07-31T01:13:28;20.40;77.20
45843;DHT22;31563;51.744;8.252;2023-07-31T01:15:56;20.40;77.40
45843;DHT22;31563;51.744;8.252;2023-07-31T01:18:24;20.40;77.30
45843;DHT22;31563;51.744;8.252;2023-07-31T01:20:57;20.30;76.90
45843;DHT22;31563;51.744;8.252;2023-07-31T01:23:53;20.30;76.80
45843;DHT22;31563;51.744;8.252;2023-07-31T01:26:28;20.30;76.50
45843;DHT22;31563;51.744;8.252;2023-07-31T01:29:02;20.30;76.50
45843;DHT22;31563;51.744;8.252;2023-07-31T01:31:31;20.30;76.40
45843;DHT22;31563;51.744;8.252;2023-07-31T01:34:00;20.20;76.30
45843;DHT22;31563;51.744;8.252;2023-07-31T01:36:29;20.20;76.30
45843;DHT22;31563;51.744;8.252;2023-07-31T01:38:58;20.20;76.30
45843;DHT22;31563;51.744;8.252;2023-07-31T01:41:28;20.20;75.90
45843;DHT22;31563;51.744;8.252;2023-07-31T01:43:56;20.20;75.80
45843;DHT22;31563;51.744;8.252;2023-07-31T01:46:24;20.20;75.90
45843;DHT22;31563;51.744;8.252;2023-07-31T01:48:52;20.20;75.80
45843;DHT22;31563;51.744;8.252;2023-07-31T01:51:19;20.10;75.70
45843;DHT22;31563;51.744;8.252;2023-07-31T01:53:47;20.10;75.50
45843;DHT22;31563;51.744;8.252;2023-07-31T01:56:15;20.10;75.70
45843;DHT22;31563;51.744;8.252;2023-07-31T01:58:44;20.00;75.70
45843;DHT22;31563;51.744;8.252;2023-07-31T02:01:12;20.00;75.70
45843;DHT22;31563;51.744;8.252;2023-07-31T02:03:40;20.00;75.70
45843;DHT22;31563;51.744;8.252;2023-07-31T02:06:09;20.10;75.80
45843;DHT22;31563;51.744;8.252;2023-07-31T02:08:36;20.00;76.00
45843;DHT22;31563;51.744;8.252;2023-07-31T02:11:04;20.00;75.80
45843;DHT22;31563;51.744;8.252;2023-07-31T02:13:32;20.00;76.20
45843;DHT22;31563;51.744;8.252;2023-07-31T02:16:01;20.00;77.00
45843;DHT22;31563;51.744;8.252;2023-07-31T02:18:29;19.90;76.50
45843;DHT22;31563;51.744;8.252;2023-07-31T02:20:57;19.90;76.50
45843;DHT22;31563;51.744;8.252;2023-07-31T02:23:25;19.90;77.00
45843;DHT22;31563;51.744;8.252;2023-07-31T02:25:53;19.90;77.10
45843;DHT22;31563;51.744;8.252;2023-07-31T02:28:20;19.90;77.20
45843;DHT22;31563;51.744;8.252;2023-07-31T02:30:50;19.90;77.70
45843;DHT22;31563;51.744;8.252;2023-07-31T02:33:19;19.80;78.10
45843;DHT22;31563;51.744;8.252;2023-07-31T02:35:47;19.80;78.50
45843;DHT22;31563;51.744;8.252;2023-07-31T02:38:15;19.80;79.00
45843;DHT22;31563;51.744;8.252;2023-07-31T02:40:42;19.80;78.90
45843;DHT22;31563;51.744;8.252;2023-07-31T02:43:10;19.80;79.40
45843;DHT22;31563;51.744;8.252;2023-07-31T02:45:38;19.80;79.30
45843;DHT22;31563;51.744;8.252;2023-07-31T02:48:06;19.80;79.40
45843;DHT22;31563;51.744;8.252;2023-07-31T02:50:35;19.80;79.60
45843;DHT22;31563;51.744;8.252;2023-07-31T02:53:03;19.80;79.70
45843;DHT22;31563;51.744;8.252;2023-07-31T02:55:31;19.80;79.80
45843;DHT22;31563;51.744;8.252;2023-07-31T02:57:59;19.80;79.60
45843;DHT22;31563;51.744;8.252;2023-07-31T03:00:27;19.80;79.70
45843;DHT22;31563;51.744;8.252;2023-07-31T03:02:55;19.80;79.70
45843;DHT22;31563;51.744;8.252;2023-07-31T03:05:23;19.80;79.80
45843;DHT22;31563;51.744;8.252;2023-07-31T03:07:52;19.80;79.90
45843;DHT22;31563;51.744;8.252;2023-07-31T03:10:20;19.70;79.70
45843;DHT22;31563;51.744;8.252;2023-07-31T03:12:47;19.70;80.20
45843;DHT22;31563;51.744;8.252;2023-07-31T03:15:15;19.70;80.20
45843;DHT22;31563;51.744;8.252;2023-07-31T03:17:43;19.70;79.80
45843;DHT22;31563;51.744;8.252;2023-07-31T03:20:11;19.70;79.80
45843;DHT22;31563;51.744;8.252;2023-07-31T03:22:39;19.60;79.80
45843;DHT22;31563;51.744;8.252;2023-07-31T03:25:09;19.70;80.00
45843;DHT22;31563;51.744;8.252;2023-07-31T03:27:37;19.70;79.80
45843;DHT22;31563;51.744;8.252;2023-07-31T03:30:06;19.70;79.60
45843;DHT22;31563;51.744;8.252;2023-07-31T03:32:34;19.70;79.50
45843;DHT22;31563;51.744;8.252;2023-07-31T03:35:03;19.70;79.40
45843;DHT22;31563;51.744;8.252;2023-07-31T03:37:32;19.60;79.40
45843;DHT22;31563;51.744;8.252;2023-07-31T03:39:59;19.70;79.40
45843;DHT22;31563;51.744;8.252;2023-07-31T03:42:29;19.70;79.40
45843;DHT22;31563;51.744;8.252;2023-07-31T03:44:57;19.70;79.30
45843;DHT22;31563;51.744;8.252;2023-07-31T03:47:24;19.60;79.10
45843;DHT22;31563;51.744;8.252;2023-07-31T03:49:52;19.60;79.50
45843;DHT22;31563;51.744;8.252;2023-07-31T03:52:20;19.60;79.50
45843;DHT22;31563;51.744;8.252;2023-07-31T03:54:48;19.60;79.40
45843;DHT22;31563;51.744;8.252;2023-07-31T03:57:16;19.60;79.40
45843;DHT22;31563;51.744;8.252;2023-07-31T03:59:45;19.50;79.40
45843;DHT22;31563;51.744;8.252;2023-07-31T04:02:13;19.50;79.60
45843;DHT22;31563;51.744;8.252;2023-07-31T04:04:41;19.60;79.30
45843;DHT22;31563;51.744;8.252;2023-07-31T04:07:08;19.60;79.20
45843;DHT22;31563;51.744;8.252;2023-07-31T04:09:36;19.50;79.20
45843;DHT22;31563;51.744;8.252;2023-07-31T04:12:05;19.50;79.20
45843;DHT22;31563;51.744;8.252;2023-07-31T04:14:33;19.50;79.20
45843;DHT22;31563;51.744;8.252;2023-07-31T04:17:02;19.50;79.00
45843;DHT22;31563;51.744;8.252;2023-07-31T04:19:30;19.50;79.10
45843;DHT22;31563;51.744;8.252;2023-07-31T04:21:57;19.50;78.80
45843;DHT22;31563;51.744;8.252;2023-07-31T04:24:25;19.50;79.60
45843;DHT22;31563;51.744;8.252;2023-07-31T04:26:53;19.50;80.40
45843;DHT22;31563;51.744;8.252;2023-07-31T04:29:21;19.40;80.30
45843;DHT22;31563;51.744;8.252;2023-07-31T04:31:49;19.30;81.30
45843;DHT22;31563;51.744;8.252;2023-07-31T04:34:18;19.30;81.80
45843;DHT22;31563;51.744;8.252;2023-07-31T04:36:46;19.10;81.30
45843;DHT22;31563;51.744;8.252;2023-07-31T04:39:14;19.10;81.10
45843;DHT22;31563;51.744;8.252;2023-07-31T04:41:42;19.00;81.70
45843;DHT22;31563;51.744;8.252;2023-07-31T04:44:10;19.10;82.10
45843;DHT22;31563;51.744;8.252;2023-07-31T04:46:38;19.20;81.30
45843;DHT22;31563;51.744;8.252;2023-07-31T04:49:06;19.10;81.10
45843;DHT22;31563;51.744;8.252;2023-07-31T04:51:35;18.90;81.30
45843;DHT22;31563;51.744;8.252;2023-07-31T04:54:03;18.80;81.60
45843;DHT22;31563;51.744;8.252;2023-07-31T04:56:31;18.80;82.00
45843;DHT22;31563;51.744;8.252;2023-07-31T04:58:59;18.80;82.10
45843;DHT22;31563;51.744;8.252;2023-07-31T05:01:27;18.80;81.70
45843;DHT22;31563;51.744;8.252;2023-07-31T05:03:55;18.80;81.90
45843;DHT22;31563;51.744;8.252;2023-07-31T05:06:22;18.80;81.80
45843;DHT22;31563;51.744;8.252;2023-07-31T05:08:52;18.80;81.90
45843;DHT22;31563;51.744;8.252;2023-07-31T05:11:19;18.70;82.10
45843;DHT22;31563;51.744;8.252;2023-07-31T05:13:47;18.70;82.20
45843;DHT22;31563;51.744;8.252;2023-07-31T05:16:15;18.80;82.30
45843;DHT22;31563;51.744;8.252;2023-07-31T05:18:43;18.80;82.00
45843;DHT22;31563;51.744;8.252;2023-07-31T05:21:11;19.10;82.50
45843;DHT22;31563;51.744;8.252;2023-07-31T05:23:39;19.30;80.80
45843;DHT22;31563;51.744;8.252;2023-07-31T05:26:08;19.50;79.70
45843;DHT22;31563;51.744;8.252;2023-07-31T05:28:36;19.50;79.20
45843;DHT22;31563;51.744;8.252;2023-07-31T05:31:05;19.50;78.90
45843;DHT22;31563;51.744;8.252;2023-07-31T05:33:33;19.40;78.80
45843;DHT22;31563;51.744;8.252;2023-07-31T05:36:01;19.50;78.70
45843;DHT22;31563;51.744;8.252;2023-07-31T05:38:29;19.50;78.80
45843;DHT22;31563;51.744;8.252;2023-07-31T05:40:56;19.60;78.30
45843;DHT22;31563;51.744;8.252;2023-07-31T05:43:26;19.60;78.10
45843;DHT22;31563;51.744;8.252;2023-07-31T05:45:53;19.70;77.90
45843;DHT22;31563;51.744;8.252;2023-07-31T05:48:21;19.80;77.70
45843;DHT22;31563;51.744;8.252;2023-07-31T05:50:49;19.80;77.30
45843;DHT22;31563;51.744;8.252;2023-07-31T05:53:17;19.90;77.40
45843;DHT22;31563;51.744;8.252;2023-07-31T05:55:45;20.00;77.10
45843;DHT22;31563;51.744;8.252;2023-07-31T05:58:13;20.00;76.90
45843;DHT22;31563;51.744;8.252;2023-07-31T06:00:42;20.00;76.80
45843;DHT22;31563;51.744;8.252;2023-07-31T06:03:10;20.00;76.70
45843;DHT22;31563;51.744;8.252;2023-07-31T06:05:38;20.00;76.80
45843;DHT22;31563;51.744;8.252;2023-07-31T06:08:06;20.00;78.50
45843;DHT22;31563;51.744;8.252;2023-07-31T06:10:34;19.80;79.50
45843;DHT22;31563;51.744;8.252;2023-07-31T06:13:02;19.70;80.10
45843;DHT22;31563;51.744;8.252;2023-07-31T06:15:30;19.80;79.40
45843;DHT22;31563;51.744;8.252;2023-07-31T06:17:59;19.80;80.40
45843;DHT22;31563;51.744;8.252;2023-07-31T06:20:29;19.80;79.30
45843;DHT22;31563;51.744;8.252;2023-07-31T06:22:56;20.00;78.70
45843;DHT22;31563;51.744;8.252;2023-07-31T06:25:24;20.10;78.20
45843;DHT22;31563;51.744;8.252;2023-07-31T06:27:52;20.20;77.60
45843;DHT22;31563;51.744;8.252;2023-07-31T06:30:20;20.20;77.20
45843;DHT22;31563;51.744;8.252;2023-07-31T06:32:48;20.20;77.20
45843;DHT22;31563;51.744;8.252;2023-07-31T06:35:17;20.20;77.40
45843;DHT22;31563;51.744;8.252;2023-07-31T06:37:45;20.10;77.40
45843;DHT22;31563;51.744;8.252;2023-07-31T06:40:13;20.10;77.70
45843;DHT22;31563;51.744;8.252;2023-07-31T06:42:41;20.00;78.20
45843;DHT22;31563;51.744;8.252;2023-07-31T06:45:09;20.00;78.60
45843;DHT22;31563;51.744;8.252;2023-07-31T06:47:38;20.00;78.80
45843;DHT22;31563;51.744;8.252;2023-07-31T06:50:06;19.90;79.20
45843;DHT22;31563;51.744;8.252;2023-07-31T06:52:35;19.90;79.60
45843;DHT22;31563;51.744;8.252;2023-07-31T06:55:16;19.90;79.50
45843;DHT22;31563;51.744;8.252;2023-07-31T06:57:44;19.90;79.70
45843;DHT22;31563;51.744;8.252;2023-07-31T07:00:13;19.90;80.00
45843;DHT22;31563;51.744;8.252;2023-07-31T07:02:41;19.90;80.10
45843;DHT22;31563;51.744;8.252;2023-07-31T07:05:09;19.90;80.30
45843;DHT22;31563;51.744;8.252;2023-07-31T07:07:39;19.90;80.50
45843;DHT22;31563;51.744;8.252;2023-07-31T07:10:07;19.90;80.60
45843;DHT22;31563;51.744;8.252;2023-07-31T07:12:35;19.80;80.60
45843;DHT22;31563;51.744;8.252;2023-07-31T07:15:04;19.80;81.00
45843;DHT22;31563;51.744;8.252;2023-07-31T07:17:32;19.80;81.00
45843;DHT22;31563;51.744;8.252;2023-07-31T07:20:00;19.90;80.60
45843;DHT22;31563;51.744;8.252;2023-07-31T07:22:30;19.90;80.40
45843;DHT22;31563;51.744;8.252;2023-07-31T07:24:59;20.00;80.60
45843;DHT22;31563;51.744;8.252;2023-07-31T07:27:27;19.90;80.80
45843;DHT22;31563;51.744;8.252;2023-07-31T07:29:55;19.80;81.10
45843;DHT22;31563;51.744;8.252;2023-07-31T07:32:23;19.80;81.50
45843;DHT22;31563;51.744;8.252;2023-07-31T07:34:50;19.90;81.60
45843;DHT22;31563;51.744;8.252;2023-07-31T07:37:19;19.90;81.90
45843;DHT22;31563;51.744;8.252;2023-07-31T07:39:47;19.80;82.10
45843;DHT22;31563;51.744;8.252;2023-07-31T07:42:16;19.80;82.30
45843;DHT22;31563;51.744;8.252;2023-07-31T07:44:44;19.70;82.60
45843;DHT22;31563;51.744;8.252;2023-07-31T07:47:13;19.80;82.70
45843;DHT22;31563;51.744;8.252;2023-07-31T07:49:40;20.00;83.30
45843;DHT22;31563;51.744;8.252;2023-07-31T07:52:12;20.30;82.60
45843;DHT22;31563;51.744;8.252;2023-07-31T07:54:39;20.30;82.20
45843;DHT22;31563;51.744;8.252;2023-07-31T07:57:07;20.50;81.90
45843;DHT22;31563;51.744;8.252;2023-07-31T07:59:36;20.30;82.10
45843;DHT22;31563;51.744;8.252;2023-07-31T08:02:05;20.20;82.70
45843;DHT22;31563;51.744;8.252;2023-07-31T08:04:33;20.00;83.50
45843;DHT22;31563;51.744;8.252;2023-07-31T08:07:01;20.00;83.90
45843;DHT22;31563;51.744;8.252;2023-07-31T08:09:29;20.00;84.30
45843;DHT22;31563;51.744;8.252;2023-07-31T08:11:57;20.10;84.10
45843;DHT22;31563;51.744;8.252;2023-07-31T08:14:28;20.10;84.10
45843;DHT22;31563;51.744;8.252;2023-07-31T08:17:01;20.10;83.90
45843;DHT22;31563;51.744;8.252;2023-07-31T08:19:30;20.10;84.30
45843;DHT22;31563;51.744;8.252;2023-07-31T08:21:58;20.10;84.10
45843;DHT22;31563;51.744;8.252;2023-07-31T08:24:26;20.00;84.40
45843;DHT22;31563;51.744;8.252;2023-07-31T08:26:54;20.10;84.40
45843;DHT22;31563;51.744;8.252;2023-07-31T08:29:22;20.00;84.40
45843;DHT22;31563;51.744;8.252;2023-07-31T08:31:50;20.00;84.50
45843;DHT22;31563;51.744;8.252;2023-07-31T08:34:19;20.10;84.20
45843;DHT22;31563;51.744;8.252;2023-07-31T08:36:47;20.00;84.10
45843;DHT22;31563;51.744;8.252;2023-07-31T08:39:15;20.00;84.40
45843;DHT22;31563;51.744;8.252;2023-07-31T08:41:44;20.00;84.40
45843;DHT22;31563;51.744;8.252;2023-07-31T08:44:12;20.00;84.80
45843;DHT22;31563;51.744;8.252;2023-07-31T08:46:41;19.90;84.70
45843;DHT22;31563;51.744;8.252;2023-07-31T08:49:10;20.00;84.40
45843;DHT22;31563;51.744;8.252;2023-07-31T08:51:41;20.00;84.50
45843;DHT22;31563;51.744;8.252;2023-07-31T08:54:10;20.00;84.80
45843;DHT22;31563;51.744;8.252;2023-07-31T08:56:39;20.30;84.00
45843;DHT22;31563;51.744;8.252;2023-07-31T08:59:09;20.30;83.50
45843;DHT22;31563;51.744;8.252;2023-07-31T09:01:41;20.30;83.50
45843;DHT22;31563;51.744;8.252;2023-07-31T09:04:12;20.40;83.40
45843;DHT22;31563;51.744;8.252;2023-07-31T09:06:42;20.50;82.80
45843;DHT22;31563;51.744;8.252;2023-07-31T09:09:11;20.50;82.10
45843;DHT22;31563;51.744;8.252;2023-07-31T09:11:39;20.70;81.10
45843;DHT22;31563;51.744;8.252;2023-07-31T09:14:08;20.80;81.10
45843;DHT22;31563;51.744;8.252;2023-07-31T09:16:52;20.80;81.10
45843;DHT22;31563;51.744;8.252;2023-07-31T09:19:27;20.70;81.70
45843;DHT22;31563;51.744;8.252;2023-07-31T09:21:57;20.70;80.80
45843;DHT22;31563;51.744;8.252;2023-07-31T09:24:26;20.80;80.60
45843;DHT22;31563;51.744;8.252;2023-07-31T09:26:54;20.60;81.40
45843;DHT22;31563;51.744;8.252;2023-07-31T09:29:23;20.80;81.50
45843;DHT22;31563;51.744;8.252;2023-07-31T09:31:51;21.30;80.20
45843;DHT22;31563;51.744;8.252;2023-07-31T09:34:19;21.60;78.80
45843;DHT22;31563;51.744;8.252;2023-07-31T09:36:48;21.90;77.50
45843;DHT22;31563;51.744;8.252;2023-07-31T09:39:18;21.70;76.40
45843;DHT22;31563;51.744;8.252;2023-07-31T09:41:53;21.60;77.50
45843;DHT22;31563;51.744;8.252;2023-07-31T09:44:21;21.60;77.20
45843;DHT22;31563;51.744;8.252;2023-07-31T09:46:49;21.60;76.60
45843;DHT22;31563;51.744;8.252;2023-07-31T09:49:17;21.90;76.10
45843;DHT22;31563;51.744;8.252;2023-07-31T09:51:45;22.10;74.70
45843;DHT22;31563;51.744;8.252;2023-07-31T09:54:14;22.10;75.00
45843;DHT22;31563;51.744;8.252;2023-07-31T09:56:45;22.00;75.00
45843;DHT22;31563;51.744;8.252;2023-07-31T09:59:15;22.00;75.10
45843;DHT22;31563;51.744;8.252;2023-07-31T10:01:48;21.90;75.10
45843;DHT22;31563;51.744;8.252;2023-07-31T10:04:17;21.90;76.10
45843;DHT22;31563;51.744;8.252;2023-07-31T10:06:50;22.20;75.20
45843;DHT22;31563;51.744;8.252;2023-07-31T10:09:20;22.20;74.90
45843;DHT22;31563;51.744;8.252;2023-07-31T10:11:55;22.30;75.10
45843;DHT22;31563;51.744;8.252;2023-07-31T10:14:24;22.30;74.70
45843;DHT22;31563;51.744;8.252;2023-07-31T10:16:52;22.30;74.70
45843;DHT22;31563;51.744;8.252;2023-07-31T10:19:21;22.70;73.90
45843;DHT22;31563;51.744;8.252;2023-07-31T10:21:49;22.60;73.90
45843;DHT22;31563;51.744;8.252;2023-07-31T10:24:18;22.40;74.90
45843;DHT22;31563;51.744;8.252;2023-07-31T10:26:47;22.30;74.90
45843;DHT22;31563;51.744;8.252;2023-07-31T10:29:18;22.30;75.60
45843;DHT22;31563;51.744;8.252;2023-07-31T10:31:47;22.20;76.10
45843;DHT22;31563;51.744;8.252;2023-07-31T10:34:16;22.40;75.50
45843;DHT22;31563;51.744;8.252;2023-07-31T10:36:45;22.30;75.70
45843;DHT22;31563;51.744;8.252;2023-07-31T10:39:34;21.90;76.10
45843;DHT22;31563;51.744;8.252;2023-07-31T10:42:10;22.30;77.40
45843;DHT22;31563;51.744;8.252;2023-07-31T10:44:43;23.20;73.90
45843;DHT22;31563;51.744;8.252;2023-07-31T10:47:14;24.00;70.50
45843;DHT22;31563;51.744;8.252;2023-07-31T10:49:45;24.50;68.50
45843;DHT22;31563;51.744;8.252;2023-07-31T10:52:20;24.70;67.80
45843;DHT22;31563;51.744;8.252;2023-07-31T10:55:14;24.80;67.10
45843;DHT22;31563;51.744;8.252;2023-07-31T10:57:44;24.90;67.10
45843;DHT22;31563;51.744;8.252;2023-07-31T11:00:23;24.80;66.10
45843;DHT22;31563;51.744;8.252;2023-07-31T11:02:59;24.50;66.10
45843;DHT22;31563;51.744;8.252;2023-07-31T11:05:48;24.70;65.90
45843;DHT22;31563;51.744;8.252;2023-07-31T11:08:18;25.10;64.80
45843;DHT22;31563;51.744;8.252;2023-07-31T11:10:48;25.80;62.80
45843;DHT22;31563;51.744;8.252;2023-07-31T11:13:17;25.80;62.40
45843;DHT22;31563;51.744;8.252;2023-07-31T11:15:46;25.50;63.20
45843;DHT22;31563;51.744;8.252;2023-07-31T11:18:14;25.60;63.10
45843;DHT22;31563;51.744;8.252;2023-07-31T11:20:43;25.60;63.20
45843;DHT22;31563;51.744;8.252;2023-07-31T11:23:12;25.50;63.50
45843;DHT22;31563;51.744;8.252;2023-07-31T11:25:40;25.40;63.30
45843;DHT22;31563;51.744;8.252;2023-07-31T11:28:09;25.30;64.00
45843;DHT22;31563;51.744;8.252;2023-07-31T11:30:38;25.20;63.80
45843;DHT22;31563;51.744;8.252;2023-07-31T11:33:09;25.10;64.30
45843;DHT22;31563;51.744;8.252;2023-07-31T11:35:42;25.30;64.60
45843;DHT22;31563;51.744;8.252;2023-07-31T11:38:12;25.30;63.70
45843;DHT22;31563;51.744;8.252;2023-07-31T11:40:43;25.20;63.70
45843;DHT22;31563;51.744;8.252;2023-07-31T11:43:11;25.10;64.40
45843;DHT22;31563;51.744;8.252;2023-07-31T11:45:45;25.10;64.30
45843;DHT22;31563;51.744;8.252;2023-07-31T11:48:20;25.00;64.60
45843;DHT22;31563;51.744;8.252;2023-07-31T11:50:49;24.80;65.00
45843;DHT22;31563;51.744;8.252;2023-07-31T11:53:20;24.70;65.40
45843;DHT22;31563;51.744;8.252;2023-07-31T11:55:50;24.70;65.90
45843;DHT22;31563;51.744;8.252;2023-07-31T11:58:19;24.70;65.70
45843;DHT22;31563;51.744;8.252;2023-07-31T12:00:48;24.70;66.00
45843;DHT22;31563;51.744;8.252;2023-07-31T12:03:17;24.90;65.90
45843;DHT22;31563;51.744;8.252;2023-07-31T12:05:48;24.90;65.50
45843;DHT22;31563;51.744;8.252;2023-07-31T12:08:16;25.00;65.20
45843;DHT22;31563;51.744;8.252;2023-07-31T12:10:44;24.80;65.70
45843;DHT22;31563;51.744;8.252;2023-07-31T12:13:19;24.50;66.40
45843;DHT22;31563;51.744;8.252;2023-07-31T12:15:48;24.40;66.90
45843;DHT22;31563;51.744;8.252;2023-07-31T12:18:19;24.30;67.30
45843;DHT22;31563;51.744;8.252;2023-07-31T12:20:53;24.20;68.00
45843;DHT22;31563;51.744;8.252;2023-07-31T12:23:23;24.20;68.10
45843;DHT22;31563;51.744;8.252;2023-07-31T12:26:01;24.10;68.30
45843;DHT22;31563;51.744;8.252;2023-07-31T12:28:29;24.20;68.30
45843;DHT22;31563;51.744;8.252;2023-07-31T12:30:58;24.10;68.50
45843;DHT22;31563;51.744;8.252;2023-07-31T12:33:31;24.10;68.50
45843;DHT22;31563;51.744;8.252;2023-07-31T12:36:02;24.20;68.40
45843;DHT22;31563;51.744;8.252;2023-07-31T12:38:30;24.10;68.10
45843;DHT22;31563;51.744;8.252;2023-07-31T12:40:58;24.00;68.40
45843;DHT22;31563;51.744;8.252;2023-07-31T12:43:26;24.10;68.50
45843;DHT22;31563;51.744;8.252;2023-07-31T12:45:55;24.30;68.20
45843;DHT22;31563;51.744;8.252;2023-07-31T12:48:23;24.60;67.00
45843;DHT22;31563;51.744;8.252;2023-07-31T12:50:51;25.10;65.70
45843;DHT22;31563;51.744;8.252;2023-07-31T12:53:20;25.10;65.00
45843;DHT22;31563;51.744;8.252;2023-07-31T12:55:48;25.00;65.40
45843;DHT22;31563;51.744;8.252;2023-07-31T12:58:16;25.20;65.20
45843;DHT22;31563;51.744;8.252;2023-07-31T13:00:44;25.30;64.70
45843;DHT22;31563;51.744;8.252;2023-07-31T13:03:12;25.50;64.20
45843;DHT22;31563;51.744;8.252;2023-07-31T13:05:40;25.70;64.00
45843;DHT22;31563;51.744;8.252;2023-07-31T13:08:08;26.20;63.30
45843;DHT22;31563;51.744;8.252;2023-07-31T13:10:37;26.70;61.80
45843;DHT22;31563;51.744;8.252;2023-07-31T13:13:06;27.10;60.70
45843;DHT22;31563;51.744;8.252;2023-07-31T13:15:33;28.20;58.80
45843;DHT22;31563;51.744;8.252;2023-07-31T13:18:02;28.00;57.20
45843;DHT22;31563;51.744;8.252;2023-07-31T13:20:30;27.20;58.60
45843;DHT22;31563;51.744;8.252;2023-07-31T13:22:58;26.30;60.40
45843;DHT22;31563;51.744;8.252;2023-07-31T13:25:25;25.90;61.90
45843;DHT22;31563;51.744;8.252;2023-07-31T13:27:55;25.60;62.60
45843;DHT22;31563;51.744;8.252;2023-07-31T13:30:26;25.50;63.40
45843;DHT22;31563;51.744;8.252;2023-07-31T13:32:55;25.80;63.00
45843;DHT22;31563;51.744;8.252;2023-07-31T13:35:22;25.90;62.10
45843;DHT22;31563;51.744;8.252;2023-07-31T13:37:50;25.60;62.10
45843;DHT22;31563;51.744;8.252;2023-07-31T13:40:18;25.30;63.30
45843;DHT22;31563;51.744;8.252;2023-07-31T13:42:46;25.20;63.70
45843;DHT22;31563;51.744;8.252;2023-07-31T13:45:16;25.10;63.90
45843;DHT22;31563;51.744;8.252;2023-07-31T13:47:44;25.10;63.90
45843;DHT22;31563;51.744;8.252;2023-07-31T13:50:12;25.00;64.20
45843;DHT22;31563;51.744;8.252;2023-07-31T13:52:40;24.80;64.50
45843;DHT22;31563;51.744;8.252;2023-07-31T13:55:08;24.70;64.90
45843;DHT22;31563;51.744;8.252;2023-07-31T13:57:36;24.50;65.60
45843;DHT22;31563;51.744;8.252;2023-07-31T14:00:05;24.40;66.20
45843;DHT22;31563;51.744;8.252;2023-07-31T14:02:34;24.40;66.20
45843;DHT22;31563;51.744;8.252;2023-07-31T14:05:02;24.40;66.40
45843;DHT22;31563;51.744;8.252;2023-07-31T14:07:31;24.30;66.40
45843;DHT22;31563;51.744;8.252;2023-07-31T14:09:59;24.40;66.50
45843;DHT22;31563;51.744;8.252;2023-07-31T14:12:27;24.70;66.00
45843;DHT22;31563;51.744;8.252;2023-07-31T14:15:09;24.90;65.30
45843;DHT22;31563;51.744;8.252;2023-07-31T14:17:38;25.40;64.00
45843;DHT22;31563;51.744;8.252;2023-07-31T14:20:08;25.70;63.20
45843;DHT22;31563;51.744;8.252;2023-07-31T14:22:38;25.80;62.80
45843;DHT22;31563;51.744;8.252;2023-07-31T14:25:06;25.70;62.90
45843;DHT22;31563;51.744;8.252;2023-07-31T14:27:36;25.70;63.20
45843;DHT22;31563;51.744;8.252;2023-07-31T14:30:07;25.70;63.00
45843;DHT22;31563;51.744;8.252;2023-07-31T14:32:35;25.60;63.40
45843;DHT22;31563;51.744;8.252;2023-07-31T14:35:05;25.60;63.40
45843;DHT22;31563;51.744;8.252;2023-07-31T14:37:40;25.70;63.50
45843;DHT22;31563;51.744;8.252;2023-07-31T14:40:09;25.60;63.30
45843;DHT22;31563;51.744;8.252;2023-07-31T14:42:38;25.40;63.40
45843;DHT22;31563;51.744;8.252;2023-07-31T14:45:07;25.10;64.30
45843;DHT22;31563;51.744;8.252;2023-07-31T14:47:37;24.90;64.90
45843;DHT22;31563;51.744;8.252;2023-07-31T14:50:07;24.80;65.50
45843;DHT22;31563;51.744;8.252;2023-07-31T14:52:35;24.70;65.80
45843;DHT22;31563;51.744;8.252;2023-07-31T14:55:03;24.80;66.00
45843;DHT22;31563;51.744;8.252;2023-07-31T14:57:31;24.70;66.10
45843;DHT22;31563;51.744;8.252;2023-07-31T14:59:59;24.80;66.10
45843;DHT22;31563;51.744;8.252;2023-07-31T15:02:27;25.10;66.10
45843;DHT22;31563;51.744;8.252;2023-07-31T15:04:55;25.50;65.00
45843;DHT22;31563;51.744;8.252;2023-07-31T15:07:24;25.60;64.10
45843;DHT22;31563;51.744;8.252;2023-07-31T15:09:52;25.60;64.00
45843;DHT22;31563;51.744;8.252;2023-07-31T15:12:20;25.60;63.80
45843;DHT22;31563;51.744;8.252;2023-07-31T15:14:48;25.70;63.90
45843;DHT22;31563;51.744;8.252;2023-07-31T15:17:16;25.80;63.80
45843;DHT22;31563;51.744;8.252;2023-07-31T15:19:44;26.00;63.50
45843;DHT22;31563;51.744;8.252;2023-07-31T15:22:12;26.20;63.00
45843;DHT22;31563;51.744;8.252;2023-07-31T15:24:41;26.40;62.30
45843;DHT22;31563;51.744;8.252;2023-07-31T15:27:09;26.20;61.90
45843;DHT22;31563;51.744;8.252;2023-07-31T15:29:37;25.90;62.60
45843;DHT22;31563;51.744;8.252;2023-07-31T15:32:06;25.70;63.20
45843;DHT22;31563;51.744;8.252;2023-07-31T15:34:34;25.30;63.70
45843;DHT22;31563;51.744;8.252;2023-07-31T15:37:02;25.10;64.30
45843;DHT22;31563;51.744;8.252;2023-07-31T15:39:30;24.80;65.10
45843;DHT22;31563;51.744;8.252;2023-07-31T15:41:59;24.50;65.70